createdAt,value
2018-05-23T00:00:37.496Z,100192.45
2018-05-23T00:03:05.272Z,100192.19
2018-05-23T00:05:32.773Z,100199.08
2018-05-23T00:08:00.272Z,100206.41
2018-05-23T00:10:27.785Z,100203.39
2018-05-23T00:12:55.288Z,100206.59
2018-05-23T00:15:22.813Z,100205.60
2018-05-23T00:17:50.301Z,100207.38
2018-05-23T00:20:18.250Z,100207.76
2018-05-23T00:22:45.749Z,100211.66
2018-05-23T00:25:13.241Z,100212.95
2018-05-23T00:27:40.859Z,100213.69
2018-05-23T00:30:08.353Z,100217.97
2018-05-23T00:32:35.872Z,100206.55
2018-05-23T00:35:03.364Z,100205.89
2018-05-23T00:37:30.889Z,100202.81
2018-05-23T00:39:58.380Z,100206.93
2018-05-23T00:42:26.244Z,100209.44
2018-05-23T00:44:53.761Z,100208.45
2018-05-23T00:47:21.269Z,100208.33
2018-05-23T00:49:48.780Z,100203.97
2018-05-23T00:52:16.378Z,100203.67
2018-05-23T00:54:55.740Z,100207.67
2018-05-23T00:57:23.237Z,100211.31
2018-05-23T00:59:50.852Z,100201.52
2018-05-23T01:02:18.337Z,100207.05
2018-05-23T01:04:45.835Z,100203.06
2018-05-23T01:07:13.363Z,100199.91
2018-05-23T01:09:40.878Z,100202.26
2018-05-23T01:12:08.404Z,100203.83
2018-05-23T01:14:35.889Z,100203.47
2018-05-23T01:17:03.878Z,100199.72
2018-05-23T01:19:31.381Z,100198.53
2018-05-23T01:21:58.857Z,100206.95
2018-05-23T01:24:26.414Z,100202.94
2018-05-23T01:26:53.913Z,100208.09
2018-05-23T01:29:21.425Z,100217.73
2018-05-23T01:31:48.914Z,100214.80
2018-05-23T01:34:16.787Z,100215.38
2018-05-23T01:36:44.272Z,100218.31
2018-05-23T01:39:11.778Z,100227.80
2018-05-23T01:41:39.290Z,100224.55
2018-05-23T01:44:06.782Z,100226.55
2018-05-23T01:46:34.324Z,100228.06
2018-05-23T01:49:13.688Z,100227.20
2018-05-23T01:51:41.259Z,100238.97
2018-05-23T01:54:08.746Z,100238.09
2018-05-23T01:56:36.399Z,100236.50
2018-05-23T01:59:03.889Z,100233.98
2018-05-23T02:01:31.484Z,100221.95
2018-05-23T02:03:59.002Z,100231.17
2018-05-23T02:06:26.493Z,100231.16
2018-05-23T02:08:54.005Z,100234.38
2018-05-23T02:11:21.497Z,100231.66
2018-05-23T02:13:49.285Z,100230.52
2018-05-23T02:16:16.776Z,100234.59
2018-05-23T02:18:44.268Z,100234.72
2018-05-23T02:21:11.789Z,100237.97
2018-05-23T02:23:39.360Z,100236.11
2018-05-23T02:26:06.813Z,100230.05
2018-05-23T02:28:34.317Z,100231.26
2018-05-23T02:31:01.854Z,100233.42
2018-05-23T02:33:29.378Z,100237.18
2018-05-23T02:35:56.882Z,100238.01
2018-05-23T02:38:24.398Z,100241.08
2018-05-23T02:40:51.893Z,100243.02
2018-05-23T02:43:19.409Z,100238.47
2018-05-23T02:45:46.917Z,100241.45
2018-05-23T02:48:14.804Z,100243.45
2018-05-23T02:50:42.297Z,100236.64
2018-05-23T02:53:09.773Z,100239.84
2018-05-23T02:55:37.310Z,100235.58
2018-05-23T02:58:04.805Z,100237.28
2018-05-23T03:00:32.313Z,100238.14
2018-05-23T03:02:59.853Z,100246.39
2018-05-23T03:05:27.504Z,100249.98
2018-05-23T03:07:55.004Z,100245.44
2018-05-23T03:10:22.501Z,100257.16
2018-05-23T03:12:50.020Z,100259.59
2018-05-23T03:15:17.505Z,100259.42
2018-05-23T03:17:45.014Z,100257.71
2018-05-23T03:20:12.529Z,100258.31
2018-05-23T03:22:40.013Z,100261.84
2018-05-23T03:25:07.537Z,100269.10
2018-05-23T03:27:35.032Z,100265.53
2018-05-23T03:30:02.567Z,100272.61
2018-05-23T03:32:30.093Z,100270.84
2018-05-23T03:34:57.577Z,100263.73
2018-05-23T03:37:25.093Z,100262.59
2018-05-23T03:39:52.605Z,100263.77
2018-05-23T03:42:20.242Z,100267.88
2018-05-23T03:44:47.737Z,100272.38
2018-05-23T03:47:15.221Z,100280.33
2018-05-23T03:49:42.737Z,100281.10
2018-05-23T03:52:10.229Z,100282.44
2018-05-23T03:54:37.779Z,100277.54
2018-05-23T03:57:05.257Z,100280.45
2018-05-23T03:59:44.725Z,100274.98
2018-05-23T04:02:24.009Z,100273.05
2018-05-23T04:05:04.470Z,100283.25
2018-05-23T04:07:37.808Z,100286.89
2018-05-23T04:10:06.461Z,100296.50
2018-05-23T04:12:33.945Z,100293.09
2018-05-23T04:15:01.433Z,100293.66
2018-05-23T04:17:28.948Z,100293.47
2018-05-23T04:19:56.425Z,100296.44
2018-05-23T04:22:24.276Z,100296.00
2018-05-23T04:24:51.780Z,100299.30
2018-05-23T04:27:19.277Z,100293.63
2018-05-23T04:29:46.797Z,100300.47
2018-05-23T04:32:14.361Z,100300.52
2018-05-23T04:34:42.077Z,100301.45
2018-05-23T04:37:09.569Z,100299.69
2018-05-23T04:39:37.052Z,100304.45
2018-05-23T04:42:04.572Z,100302.63
2018-05-23T04:44:32.065Z,100309.02
2018-05-23T04:46:59.750Z,100314.25
2018-05-23T04:49:27.237Z,100310.83
2018-05-23T04:51:54.739Z,100311.81
2018-05-23T04:54:22.269Z,100320.31
2018-05-23T04:56:49.769Z,100326.09
2018-05-23T04:59:17.273Z,100322.03
2018-05-23T05:01:44.760Z,100321.12
2018-05-23T05:04:12.432Z,100331.66
2018-05-23T05:06:39.913Z,100333.95
2018-05-23T05:09:07.444Z,100331.24
2018-05-23T05:11:34.948Z,100338.86
2018-05-23T05:14:02.443Z,100335.62
2018-05-23T05:16:29.968Z,100346.05
2018-05-23T05:18:57.452Z,100342.16
2018-05-23T05:21:25.001Z,100344.61
2018-05-23T05:23:52.499Z,100357.38
2018-05-23T05:26:20.009Z,100358.13
2018-05-23T05:28:47.546Z,100366.84
2018-05-23T05:31:15.037Z,100369.00
2018-05-23T05:33:42.541Z,100374.48
2018-05-23T05:36:10.031Z,100364.59
2018-05-23T05:38:37.557Z,100367.72
2018-05-23T05:41:05.084Z,100370.33
2018-05-23T05:43:32.577Z,100372.23
2018-05-23T05:46:00.090Z,100376.31
2018-05-23T05:48:27.569Z,100384.95
2018-05-23T05:50:55.090Z,100387.47
2018-05-23T05:53:22.568Z,100385.53
2018-05-23T05:55:50.230Z,100390.09
2018-05-23T05:58:17.729Z,100394.20
2018-05-23T06:00:45.205Z,100397.71
2018-05-23T06:03:12.729Z,100402.91
2018-05-23T06:05:40.213Z,100405.61
2018-05-23T06:08:07.721Z,100412.82
2018-05-23T06:10:35.221Z,100413.47
2018-05-23T06:13:03.162Z,100411.78
2018-05-23T06:15:30.818Z,100415.38
2018-05-23T06:17:58.309Z,100415.78
2018-05-23T06:20:25.821Z,100418.64
2018-05-23T06:22:53.303Z,100419.24
2018-05-23T06:25:20.835Z,100419.80
2018-05-23T06:27:48.321Z,100418.67
2018-05-23T06:30:16.276Z,100421.37
2018-05-23T06:32:43.769Z,100419.50
2018-05-23T06:35:11.276Z,100418.98
2018-05-23T06:37:38.807Z,100423.21
2018-05-23T06:40:06.300Z,100419.95
2018-05-23T06:42:33.805Z,100423.18
2018-05-23T06:45:01.289Z,100421.19
2018-05-23T06:47:28.822Z,100428.71
2018-05-23T06:49:56.330Z,100428.52
2018-05-23T06:52:23.829Z,100425.02
2018-05-23T06:54:51.382Z,100425.70
2018-05-23T06:57:18.886Z,100423.19
2018-05-23T06:59:46.413Z,100436.44
2018-05-23T07:02:13.905Z,100438.81
2018-05-23T07:04:41.856Z,100443.88
2018-05-23T07:07:09.341Z,100445.80
2018-05-23T07:09:36.832Z,100442.62
2018-05-23T07:12:04.349Z,100445.08
2018-05-23T07:14:31.860Z,100440.09
2018-05-23T07:16:59.454Z,100448.38
2018-05-23T07:19:26.885Z,100452.59
2018-05-23T07:21:54.628Z,100448.62
2018-05-23T07:24:22.129Z,100457.30
2018-05-23T07:26:49.625Z,100458.57
2018-05-23T07:29:17.153Z,100453.00
2018-05-23T07:31:44.668Z,100459.31
2018-05-23T07:34:12.201Z,100464.48
2018-05-23T07:36:39.697Z,100467.22
2018-05-23T07:39:07.225Z,100469.14
2018-05-23T07:41:34.749Z,100465.02
2018-05-23T07:44:02.237Z,100470.77
2018-05-23T07:46:29.748Z,100480.75
2018-05-23T07:48:57.245Z,100484.36
2018-05-23T07:51:24.761Z,100485.11
2018-05-23T07:53:52.277Z,100485.84
2018-05-23T07:56:20.048Z,100473.08
2018-05-23T07:58:47.541Z,100478.02
2018-05-23T08:01:15.036Z,100473.88
2018-05-23T08:03:42.556Z,100475.66
2018-05-23T08:06:10.062Z,100477.30
2018-05-23T08:08:37.577Z,100479.02
2018-05-23T08:11:05.077Z,100479.34
2018-05-23T08:13:32.613Z,100481.36
2018-05-23T08:30:14.582Z,100504.52
2018-05-23T08:32:42.064Z,100505.39
2018-05-23T08:35:09.552Z,100510.72
2018-05-23T08:37:37.029Z,100503.41
2018-05-23T08:40:04.489Z,100510.36
2018-05-23T08:42:31.963Z,100509.95
2018-05-23T08:44:59.424Z,100508.16
2018-05-23T08:47:27.154Z,100512.50
2018-05-23T08:49:54.623Z,100514.50
2018-05-23T08:52:22.090Z,100521.21
2018-05-23T08:54:49.610Z,100527.47
2018-05-23T08:57:17.084Z,100531.98
2018-05-23T08:59:44.581Z,100539.45
2018-05-23T09:02:12.041Z,100547.98
2018-05-23T09:04:39.663Z,100545.62
2018-05-23T09:07:07.137Z,100546.67
2018-05-23T09:09:34.613Z,100556.18
2018-05-23T09:12:02.103Z,100551.17
2018-05-23T09:14:29.598Z,100539.14
2018-05-23T09:16:57.094Z,100536.38
2018-05-23T09:19:24.575Z,100540.88
2018-05-23T09:21:52.540Z,100534.86
2018-05-23T09:24:19.996Z,100537.39
2018-05-23T09:26:47.444Z,100538.97
2018-05-23T09:29:14.907Z,100534.53
2018-05-23T09:31:42.360Z,100529.68
2018-05-23T09:34:09.832Z,100527.52
2018-05-23T09:36:37.287Z,100528.37
2018-05-23T09:39:05.558Z,100534.36
2018-05-23T09:41:32.999Z,100547.73
2018-05-23T09:44:00.457Z,100547.39
2018-05-23T09:46:27.935Z,100550.02
2018-05-23T09:48:55.388Z,100552.47
2018-05-23T09:51:22.853Z,100552.97
2018-05-23T09:53:50.299Z,100552.52
2018-05-23T09:56:18.050Z,100552.31
2018-05-23T09:58:45.513Z,100553.47
2018-05-23T10:01:12.959Z,100558.34
2018-05-23T10:03:40.479Z,100553.67
2018-05-23T10:06:07.919Z,100553.52
2018-05-23T10:08:35.403Z,100547.53
2018-05-23T10:11:02.866Z,100552.22
2018-05-23T10:13:30.760Z,100545.97
2018-05-23T10:15:58.203Z,100542.46
2018-05-23T10:18:25.651Z,100551.86
2018-05-23T10:20:53.140Z,100547.00
2018-05-23T10:23:20.596Z,100548.64
2018-05-23T10:25:48.075Z,100544.54
2018-05-23T10:28:15.524Z,100546.76
2018-05-23T10:30:43.048Z,100541.52
2018-05-23T10:33:10.500Z,100543.88
2018-05-23T10:35:37.958Z,100548.36
2018-05-23T10:38:05.445Z,100536.96
2018-05-23T10:40:32.891Z,100543.48
2018-05-23T10:43:00.356Z,100547.89
2018-05-23T10:45:27.809Z,100543.89
2018-05-23T10:47:55.279Z,100550.61
2018-05-23T10:50:22.723Z,100552.39
2018-05-23T10:52:50.191Z,100548.69
2018-05-23T10:55:17.640Z,100548.22
2018-05-23T10:57:45.119Z,100542.34
2018-05-23T11:00:12.600Z,100547.10
2018-05-23T11:02:40.031Z,100542.13
2018-05-23T11:05:07.499Z,100537.47
2018-05-23T11:07:34.946Z,100541.86
2018-05-23T11:10:02.417Z,100541.38
2018-05-23T11:12:29.867Z,100543.95
2018-05-23T11:14:57.399Z,100533.99
2018-05-23T11:17:24.828Z,100541.59
2018-05-23T11:19:52.279Z,100532.47
2018-05-23T11:22:19.767Z,100532.94
2018-05-23T11:24:47.220Z,100535.44
2018-05-23T11:27:14.695Z,100528.02
2018-05-23T11:29:42.202Z,100528.19
2018-05-23T11:32:09.890Z,100528.97
2018-05-23T11:34:37.349Z,100518.50
2018-05-23T11:37:04.821Z,100513.23
2018-05-23T11:39:32.303Z,100519.21
2018-05-23T11:41:59.749Z,100508.95
2018-05-23T11:44:27.217Z,100511.02
2018-05-23T11:46:54.680Z,100506.52
2018-05-23T11:49:22.496Z,100502.48
2018-05-23T11:51:49.949Z,100502.53
2018-05-23T11:54:17.404Z,100497.10
2018-05-23T11:56:44.875Z,100492.59
2018-05-23T11:59:12.339Z,100489.05
2018-05-23T12:01:39.824Z,100490.11
2018-05-23T12:04:07.270Z,100484.58
2018-05-23T12:06:34.760Z,100480.73
2018-05-23T12:09:02.220Z,100479.28
2018-05-23T12:11:29.683Z,100475.72
2018-05-23T12:13:57.155Z,100477.56
2018-05-23T12:16:24.621Z,100471.02
2018-05-23T12:18:52.096Z,100472.94
2018-05-23T12:21:19.543Z,100464.37
2018-05-23T12:23:47.283Z,100470.16
2018-05-23T12:26:14.723Z,100466.66
2018-05-23T12:28:42.196Z,100458.81
2018-05-23T12:31:09.667Z,100461.09
2018-05-23T12:33:37.116Z,100461.46
2018-05-23T12:36:04.588Z,100457.21
2018-05-23T12:38:32.167Z,100454.61
2018-05-23T12:40:59.867Z,100455.98
2018-05-23T12:43:27.344Z,100454.02
2018-05-23T12:45:54.788Z,100451.34
2018-05-23T12:48:22.308Z,100443.22
2018-05-23T12:50:49.747Z,100448.05
2018-05-23T12:53:17.219Z,100449.07
2018-05-23T12:55:44.667Z,100441.32
2018-05-23T12:58:12.358Z,100442.95
2018-05-23T13:00:39.805Z,100443.31
2018-05-23T13:03:07.260Z,100433.17
2018-05-23T13:05:34.728Z,100426.61
2018-05-23T13:08:02.186Z,100421.86
2018-05-23T13:10:29.689Z,100424.47
2018-05-23T13:12:57.140Z,100420.66
2018-05-23T13:15:25.043Z,100424.55
2018-05-23T13:17:52.507Z,100430.98
2018-05-23T13:20:19.962Z,100427.44
2018-05-23T13:22:47.440Z,100421.34
2018-05-23T13:25:14.907Z,100420.05
2018-05-23T13:27:42.383Z,100417.76
2018-05-23T13:30:09.840Z,100419.83
2018-05-23T13:32:37.332Z,100415.58
2018-05-23T13:35:04.780Z,100412.53
2018-05-23T13:37:32.248Z,100406.81
2018-05-23T13:39:59.715Z,100408.45
2018-05-23T13:42:27.167Z,100412.77
2018-05-23T13:44:54.666Z,100404.06
2018-05-23T13:47:22.108Z,100399.77
2018-05-23T13:49:50.168Z,100395.27
2018-05-23T13:52:17.608Z,100390.20
2018-05-23T13:54:45.092Z,100397.16
2018-05-23T13:57:12.571Z,100386.84
2018-05-23T13:59:40.024Z,100388.38
2018-05-23T14:02:07.495Z,100383.18
2018-05-23T14:04:34.940Z,100373.73
2018-05-23T14:07:02.444Z,100372.72
2018-05-23T14:09:29.895Z,100369.58
2018-05-23T14:11:57.347Z,100372.28
2018-05-23T14:14:24.832Z,100367.73
2018-05-23T14:16:52.275Z,100360.40
2018-05-23T14:19:19.788Z,100361.64
2018-05-23T14:21:47.212Z,100356.61
2018-05-23T14:24:14.705Z,100350.31
2018-05-23T14:26:42.184Z,100348.30
2018-05-23T14:29:09.636Z,100336.00
2018-05-23T14:31:37.132Z,100334.92
2018-05-23T14:34:04.605Z,100327.72
2018-05-23T14:36:32.071Z,100333.39
2018-05-23T14:38:59.548Z,100325.52
2018-05-23T14:41:27.012Z,100328.08
2018-05-23T14:43:54.476Z,100332.11
2018-05-23T14:46:21.920Z,100333.36
2018-05-23T14:48:49.715Z,100330.66
2018-05-23T14:51:17.183Z,100327.33
2018-05-23T14:53:44.632Z,100340.41
2018-05-23T14:56:12.144Z,100350.89
2018-05-23T14:58:39.568Z,100377.41
2018-05-23T15:01:07.494Z,100376.69
2018-05-23T15:03:34.944Z,100359.00
2018-05-23T15:06:02.421Z,100349.48
2018-05-23T15:08:29.946Z,100349.47
2018-05-23T15:10:57.364Z,100345.84
2018-05-23T15:13:25.137Z,100344.71
2018-05-23T15:15:52.588Z,100348.20
2018-05-23T15:18:20.043Z,100347.22
2018-05-23T15:20:47.519Z,100351.50
2018-05-23T15:23:14.972Z,100344.94
2018-05-23T15:25:42.587Z,100347.31
2018-05-23T15:28:10.032Z,100351.91
2018-05-23T15:30:37.505Z,100351.49
2018-05-23T15:33:04.976Z,100351.64
2018-05-23T15:35:32.427Z,100353.19
2018-05-23T15:37:59.924Z,100356.21
2018-05-23T15:40:27.381Z,100379.95
2018-05-23T15:42:54.843Z,100393.09
2018-05-23T15:45:22.336Z,100413.75
2018-05-23T15:47:49.779Z,100421.53
2018-05-23T15:50:17.287Z,100436.08
2018-05-23T15:52:44.765Z,100442.95
2018-05-23T15:55:12.210Z,100452.23
2018-05-23T15:57:39.699Z,100461.31
2018-05-23T16:00:07.160Z,100468.59
2018-05-23T16:02:34.627Z,100478.41
2018-05-23T16:05:02.080Z,100478.03
2018-05-23T16:07:29.597Z,100481.81
2018-05-23T16:09:57.056Z,100487.55
2018-05-23T16:12:24.514Z,100478.46
2018-05-23T16:14:52.047Z,100480.30
2018-05-23T16:17:19.451Z,100479.76
2018-05-23T16:19:46.954Z,100480.73
2018-05-23T16:22:14.403Z,100480.61
2018-05-23T16:24:42.196Z,100474.41
2018-05-23T16:27:09.652Z,100469.80
2018-05-23T16:29:37.100Z,100473.77
2018-05-23T16:32:04.572Z,100467.02
2018-05-23T16:34:32.044Z,100464.36
2018-05-23T16:36:59.515Z,100462.06
2018-05-23T16:39:26.984Z,100455.77
2018-05-23T16:41:54.628Z,100455.88
2018-05-23T16:44:22.138Z,100456.88
2018-05-23T16:46:49.559Z,100457.50
2018-05-23T16:49:17.028Z,100452.53
2018-05-23T16:51:44.481Z,100459.66
2018-05-23T16:54:12.000Z,100458.51
2018-05-23T16:56:39.460Z,100463.50
2018-05-23T16:59:06.947Z,100467.17
2018-05-23T17:01:34.400Z,100475.55
2018-05-23T17:04:01.853Z,100471.34
2018-05-23T17:06:29.429Z,100474.09
2018-05-23T17:08:56.800Z,100485.66
2018-05-23T17:11:24.281Z,100477.77
2018-05-23T17:13:51.743Z,100486.99
2018-05-23T17:16:19.355Z,100489.57
2018-05-23T17:18:46.894Z,100490.55
2018-05-23T17:21:14.330Z,100489.70
2018-05-23T17:23:41.800Z,100487.72
2018-05-23T17:26:09.248Z,100489.59
2018-05-23T17:28:36.765Z,100495.86
2018-05-23T17:31:04.215Z,100500.83
2018-05-23T17:33:31.959Z,100495.66
2018-05-23T17:35:59.323Z,100504.30
2018-05-23T17:38:26.776Z,100507.20
2018-05-23T17:40:54.255Z,100504.16
2018-05-23T17:43:21.713Z,100505.37
2018-05-23T17:45:49.202Z,100504.27
2018-05-23T17:48:16.679Z,100510.67
2018-05-23T17:50:44.273Z,100517.92
2018-05-23T17:53:11.742Z,100521.87
2018-05-23T17:55:39.196Z,100525.19
2018-05-23T17:58:06.664Z,100522.86
2018-05-23T18:00:34.131Z,100522.38
2018-05-23T18:03:01.607Z,100521.13
2018-05-23T18:05:29.065Z,100523.24
2018-05-23T18:07:56.571Z,100522.06
2018-05-23T18:10:24.032Z,100517.08
2018-05-23T18:12:51.508Z,100518.53
2018-05-23T18:15:18.995Z,100518.47
2018-05-23T18:17:46.474Z,100520.85
2018-05-23T18:20:14.012Z,100529.45
2018-05-23T18:22:41.468Z,100521.17
2018-05-23T18:25:08.981Z,100529.06
2018-05-23T18:27:36.437Z,100531.45
2018-05-23T18:30:04.693Z,100542.94
2018-05-23T18:32:32.198Z,100543.92
2018-05-23T18:34:59.681Z,100543.75
2018-05-23T18:37:27.193Z,100551.81
2018-05-23T18:39:54.659Z,100553.31
2018-05-23T18:42:23.157Z,100547.59
2018-05-23T18:44:50.624Z,100552.94
2018-05-23T18:47:18.476Z,100554.97
2018-05-23T18:49:46.073Z,100556.55
2018-05-23T18:52:13.545Z,100556.79
2018-05-23T18:54:41.019Z,100555.22
2018-05-23T18:57:08.637Z,100559.31
2018-05-23T18:59:36.252Z,100554.73
2018-05-23T19:02:03.726Z,100564.05
2018-05-23T19:04:31.236Z,100554.25
2018-05-23T19:06:58.752Z,100561.52
2018-05-23T19:09:26.217Z,100561.61
2018-05-23T19:11:53.729Z,100553.29
2018-05-23T19:14:21.189Z,100549.82
2018-05-23T19:16:48.848Z,100556.05
2018-05-23T19:19:18.085Z,100549.11
2018-05-23T19:21:45.588Z,100560.11
2018-05-23T19:24:13.107Z,100554.39
2018-05-23T19:26:41.472Z,100559.30
2018-05-23T19:29:08.961Z,100555.57
2018-05-23T19:31:36.428Z,100557.91
2018-05-23T19:34:04.127Z,100555.34
2018-05-23T19:36:31.616Z,100560.67
2018-05-23T19:38:59.151Z,100567.28
2018-05-23T19:41:26.642Z,100564.28
2018-05-23T19:43:54.114Z,100567.53
2018-05-23T19:46:21.603Z,100570.24
2018-05-23T19:48:49.084Z,100568.34
2018-05-23T19:51:16.819Z,100567.00
2018-05-23T19:53:44.289Z,100565.74
2018-05-23T19:56:11.826Z,100567.08
2018-05-23T19:58:39.321Z,100569.98
2018-05-23T20:01:07.769Z,100563.88
2018-05-23T20:03:35.300Z,100563.73
2018-05-23T20:06:02.764Z,100566.86
2018-05-23T20:08:30.260Z,100568.41
2018-05-23T20:10:57.720Z,100564.80
2018-05-23T20:13:25.188Z,100568.14
2018-05-23T20:15:52.676Z,100564.33
2018-05-23T20:18:20.162Z,100571.85
2018-05-23T20:20:47.697Z,100570.19
2018-05-23T20:23:15.139Z,100571.59
2018-05-23T20:25:42.814Z,100577.45
2018-05-23T20:28:10.276Z,100576.30
2018-05-23T20:30:37.735Z,100580.13
2018-05-23T20:33:05.995Z,100584.89
2018-05-23T20:35:33.455Z,100580.13
2018-05-23T20:38:01.005Z,100575.95
2018-05-23T20:40:28.467Z,100575.52
2018-05-23T20:42:55.960Z,100579.64
2018-05-23T20:45:23.460Z,100586.38
2018-05-23T20:47:50.925Z,100580.73
2018-05-23T20:50:18.560Z,100587.16
2018-05-23T20:52:46.031Z,100584.74
2018-05-23T20:55:13.503Z,100584.17
2018-05-23T20:57:41.000Z,100586.52
2018-05-23T21:00:08.464Z,100588.81
2018-05-23T21:02:35.975Z,100586.61
2018-05-23T21:05:03.483Z,100589.55
2018-05-23T21:07:30.928Z,100584.92
2018-05-23T21:09:58.408Z,100588.12
2018-05-23T21:12:25.867Z,100584.58
2018-05-23T21:14:53.541Z,100585.78
2018-05-23T21:17:21.006Z,100584.70
2018-05-23T21:19:48.472Z,100588.20
2018-05-23T21:22:15.970Z,100579.80
2018-05-23T21:24:43.436Z,100582.05
2018-05-23T21:27:10.945Z,100580.58
2018-05-23T21:29:38.403Z,100584.18
2018-05-23T21:32:05.865Z,100575.98
2018-05-23T21:34:33.425Z,100572.77
2018-05-23T21:37:00.837Z,100573.25
2018-05-23T21:39:28.449Z,100575.41
2018-05-23T21:41:55.960Z,100570.72
2018-05-23T21:44:23.415Z,100565.78
2018-05-23T21:46:50.899Z,100563.27
2018-05-23T21:49:18.356Z,100555.58
2018-05-23T21:51:45.940Z,100563.55
2018-05-23T21:54:13.412Z,100565.03
2018-05-23T21:56:40.903Z,100572.72
2018-05-23T21:59:08.359Z,100564.70
2018-05-23T22:01:35.816Z,100566.70
2018-05-23T22:04:03.300Z,100566.00
2018-05-23T22:06:30.756Z,100570.77
2018-05-23T22:08:58.248Z,100569.31
2018-05-23T22:11:25.708Z,100574.30
2018-05-23T22:13:53.199Z,100566.35
2018-05-23T22:16:20.656Z,100568.25
2018-05-23T22:18:48.136Z,100563.97
2018-05-23T22:21:15.625Z,100563.76
2018-05-23T22:23:43.088Z,100565.02
2018-05-23T22:26:10.568Z,100559.36
2018-05-23T22:28:38.048Z,100559.97
2018-05-23T22:31:05.558Z,100555.29
2018-05-23T22:33:33.029Z,100560.40
2018-05-23T22:36:00.562Z,100549.73
2018-05-23T22:38:28.032Z,100546.57
2018-05-23T22:40:55.492Z,100547.27
2018-05-23T22:43:22.971Z,100545.44
2018-05-23T22:45:50.431Z,100553.70
2018-05-23T22:48:18.107Z,100554.03
2018-05-23T22:50:45.556Z,100542.77
2018-05-23T22:53:13.031Z,100541.20
2018-05-23T22:55:40.509Z,100545.36
2018-05-23T22:58:07.969Z,100544.58
2018-05-23T23:00:35.476Z,100545.20
2018-05-23T23:03:02.932Z,100545.42
2018-05-23T23:05:30.630Z,100552.38
2018-05-23T23:07:58.107Z,100545.98
2018-05-23T23:10:25.579Z,100545.12
2018-05-23T23:12:53.055Z,100549.95
2018-05-23T23:15:20.508Z,100553.03
2018-05-23T23:17:47.992Z,100552.92
2018-05-23T23:20:15.447Z,100554.73
2018-05-23T23:22:43.303Z,100561.20
2018-05-23T23:25:10.759Z,100564.02
2018-05-23T23:27:38.225Z,100558.14
2018-05-23T23:30:05.704Z,100553.89
2018-05-23T23:32:33.155Z,100551.39
2018-05-23T23:35:00.693Z,100559.11
2018-05-23T23:37:28.163Z,100563.97
2018-05-23T23:39:55.651Z,100560.14
2018-05-23T23:42:23.111Z,100558.83
2018-05-23T23:44:50.587Z,100556.63
2018-05-23T23:47:18.067Z,100555.41
2018-05-23T23:49:45.527Z,100553.39
2018-05-23T23:52:13.048Z,100548.56
2018-05-23T23:54:40.603Z,100550.22
2018-05-23T23:57:08.171Z,100546.33
2018-05-23T23:59:35.632Z,100548.47
